createdAt,value
2018-12-18T00:00:36.837Z,14.87
2018-12-18T00:03:17.272Z,14.73
2018-12-18T00:05:54.851Z,15.97
2018-12-18T00:08:41.842Z,15.77
2018-12-18T00:11:19.213Z,15.40
2018-12-18T00:14:08.207Z,14.77
2018-12-18T00:16:43.254Z,15.00
2018-12-18T00:19:21.032Z,16.37
2018-12-18T00:22:01.590Z,15.23
2018-12-18T00:24:42.657Z,14.93
2018-12-18T00:27:25.506Z,14.00
2018-12-18T00:30:13.111Z,15.57
2018-12-18T00:32:48.162Z,12.77
2018-12-18T00:35:37.731Z,13.27
2018-12-18T00:38:12.243Z,13.03
2018-12-18T00:40:46.786Z,12.07
2018-12-18T00:43:27.163Z,12.40
2018-12-18T00:46:05.542Z,12.33
2018-12-18T00:48:42.222Z,12.17
2018-12-18T00:51:16.926Z,11.87
2018-12-18T00:53:51.393Z,11.87
2018-12-18T00:56:41.570Z,11.97
2018-12-18T01:02:27.090Z,14.57
2018-12-18T01:08:13.357Z,12.13
2018-12-18T01:10:51.566Z,11.40
2018-12-18T01:13:32.467Z,11.20
2018-12-18T01:16:27.343Z,12.17
2018-12-18T01:19:24.435Z,12.00
2018-12-18T01:22:10.953Z,11.80
2018-12-18T01:24:45.754Z,11.30
2018-12-18T01:27:27.070Z,11.20
2018-12-18T01:30:01.539Z,11.33
2018-12-18T01:32:53.071Z,11.30
2018-12-18T01:35:33.650Z,11.00
2018-12-18T01:38:14.680Z,10.90
2018-12-18T01:41:01.307Z,11.90
2018-12-18T01:43:41.098Z,11.50
2018-12-18T01:46:15.758Z,11.53
2018-12-18T01:48:53.897Z,11.37
2018-12-18T01:51:29.022Z,11.53
2018-12-18T01:54:04.518Z,11.70
2018-12-18T01:56:42.455Z,12.53
2018-12-18T01:59:23.494Z,12.00
2018-12-18T02:02:01.570Z,12.20
2018-12-18T02:04:42.410Z,12.43
2018-12-18T02:07:23.515Z,11.80
2018-12-18T02:10:03.456Z,12.93
2018-12-18T02:12:44.071Z,13.00
2018-12-18T02:15:18.549Z,12.53
2018-12-18T02:17:58.902Z,12.23
2018-12-18T02:20:36.475Z,12.47
2018-12-18T02:23:13.222Z,12.47
2018-12-18T02:28:18.330Z,13.63
2018-12-18T02:30:56.590Z,12.47
2018-12-18T02:33:37.362Z,15.10
2018-12-18T02:36:16.198Z,13.30
2018-12-18T02:38:57.977Z,13.27
2018-12-18T02:41:35.786Z,13.87
2018-12-18T02:44:10.222Z,12.57
2018-12-18T02:46:46.603Z,12.23
2018-12-18T02:49:28.557Z,12.23
2018-12-18T02:52:07.338Z,12.90
2018-12-18T02:54:47.420Z,12.40
2018-12-18T02:57:25.955Z,12.13
2018-12-18T03:00:04.605Z,12.33
2018-12-18T03:02:43.164Z,13.00
2018-12-18T03:05:23.251Z,11.87
2018-12-18T03:08:01.339Z,12.10
2018-12-18T03:10:37.575Z,12.27
2018-12-18T03:13:16.710Z,12.00
2018-12-18T03:15:58.959Z,12.03
2018-12-18T03:18:35.227Z,12.60
2018-12-18T03:21:13.742Z,12.40
2018-12-18T03:23:49.983Z,13.17
2018-12-18T03:26:30.264Z,12.83
2018-12-18T03:29:11.826Z,12.53
2018-12-18T03:31:54.539Z,12.67
2018-12-18T03:34:33.606Z,12.07
2018-12-18T03:37:14.420Z,12.07
2018-12-18T03:39:55.187Z,11.60
2018-12-18T03:42:33.624Z,12.13
2018-12-18T03:45:12.106Z,11.97
2018-12-18T03:47:46.762Z,12.57
2018-12-18T03:50:22.895Z,12.10
2018-12-18T03:52:58.273Z,11.60
2018-12-18T03:55:36.690Z,11.70
2018-12-18T03:58:17.873Z,12.20
2018-12-18T04:00:55.570Z,11.63
2018-12-18T04:03:34.284Z,13.37
2018-12-18T04:06:13.455Z,12.83
2018-12-18T04:08:54.247Z,12.40
2018-12-18T04:11:28.694Z,12.20
2018-12-18T04:14:06.539Z,12.27
2018-12-18T04:16:46.838Z,13.13
2018-12-18T04:19:26.897Z,13.67
2018-12-18T04:22:04.749Z,13.23
2018-12-18T04:24:47.815Z,13.63
2018-12-18T04:27:25.874Z,12.90
2018-12-18T04:30:07.574Z,13.57
2018-12-18T04:32:49.781Z,14.07
2018-12-18T04:35:32.808Z,15.90
2018-12-18T04:38:08.526Z,14.33
2018-12-18T04:40:47.562Z,14.33
2018-12-18T04:43:24.740Z,13.90
2018-12-18T04:46:03.876Z,13.77
2018-12-18T04:48:45.831Z,14.33
2018-12-18T04:51:22.370Z,13.03
2018-12-18T04:54:02.000Z,14.13
2018-12-18T04:56:43.187Z,12.77
2018-12-18T04:59:18.916Z,12.10
2018-12-18T05:02:01.039Z,12.03
2018-12-18T05:04:38.554Z,13.50
2018-12-18T05:07:14.268Z,12.07
2018-12-18T05:09:57.636Z,12.43
2018-12-18T05:12:38.328Z,11.47
2018-12-18T05:15:17.457Z,11.03
2018-12-18T05:17:56.318Z,11.33
2018-12-18T05:20:49.062Z,11.17
2018-12-18T05:23:23.467Z,10.93
2018-12-18T05:26:16.040Z,11.23
2018-12-18T05:28:58.847Z,11.30
2018-12-18T05:31:40.584Z,11.27
2018-12-18T05:34:15.239Z,10.03
2018-12-18T05:36:53.006Z,10.67
2018-12-18T05:39:34.018Z,11.50
2018-12-18T05:42:13.106Z,10.93
2018-12-18T05:44:53.714Z,10.53
2018-12-18T05:47:44.790Z,10.20
2018-12-18T05:50:23.546Z,10.67
2018-12-18T05:52:59.659Z,10.50
2018-12-18T05:55:39.853Z,12.27
2018-12-18T05:58:14.364Z,11.00
2018-12-18T06:01:12.755Z,11.37
2018-12-18T06:03:53.270Z,12.70
2018-12-18T06:06:32.406Z,11.47
2018-12-18T06:09:08.258Z,11.77
2018-12-18T06:11:46.068Z,11.00
2018-12-18T06:14:27.158Z,11.13
2018-12-18T06:17:01.991Z,10.57
2018-12-18T06:19:36.522Z,10.50
2018-12-18T06:22:20.076Z,11.27
2018-12-18T06:24:57.743Z,11.10
2018-12-18T06:27:32.154Z,10.33
2018-12-18T06:30:08.455Z,10.53
2018-12-18T06:32:42.944Z,10.53
2018-12-18T06:35:18.022Z,10.33
2018-12-18T06:37:53.292Z,10.27
2018-12-18T06:40:35.572Z,10.33
2018-12-18T06:43:17.427Z,10.07
2018-12-18T06:45:57.620Z,10.43
2018-12-18T06:48:46.831Z,10.73
2018-12-18T06:51:21.291Z,11.57
2018-12-18T06:54:01.375Z,11.07
2018-12-18T06:56:38.915Z,10.87
2018-12-18T06:59:19.645Z,10.77
2018-12-18T07:01:59.013Z,10.90
2018-12-18T07:04:35.711Z,10.20
2018-12-18T07:07:10.529Z,10.77
2018-12-18T07:09:50.610Z,10.17
2018-12-18T07:12:25.920Z,10.07
2018-12-18T07:17:57.494Z,9.93
2018-12-18T07:20:35.974Z,10.57
2018-12-18T07:23:28.662Z,10.00
2018-12-18T07:26:19.382Z,10.53
2018-12-18T07:31:50.362Z,11.40
2018-12-18T07:34:25.104Z,10.80
2018-12-18T07:37:05.724Z,10.40
2018-12-18T07:39:48.806Z,10.20
2018-12-18T07:42:23.434Z,11.60
2018-12-18T07:47:54.347Z,9.80
2018-12-18T07:50:28.754Z,9.50
2018-12-18T07:53:04.003Z,9.17
2018-12-18T07:55:39.180Z,9.20
2018-12-18T07:58:14.171Z,9.20
2018-12-18T08:00:54.981Z,9.37
2018-12-18T08:03:35.705Z,9.60
2018-12-18T08:09:19.063Z,10.17
2018-12-18T08:11:53.986Z,9.73
2018-12-18T08:14:28.483Z,9.80
2018-12-18T08:17:03.872Z,9.53
2018-12-18T08:19:38.348Z,9.97
2018-12-18T08:22:19.290Z,9.70
2018-12-18T08:25:01.070Z,9.53
2018-12-18T08:27:40.548Z,9.37
2018-12-18T08:30:18.878Z,9.43
2018-12-18T08:32:56.966Z,9.80
2018-12-18T08:35:36.640Z,9.87
2018-12-18T08:38:27.810Z,9.83
2018-12-18T08:41:05.897Z,9.63
2018-12-18T08:43:40.183Z,9.37
2018-12-18T08:46:16.500Z,9.10
2018-12-18T08:48:57.140Z,8.83
2018-12-18T08:51:37.705Z,7.97
2018-12-18T08:54:20.409Z,8.90
2018-12-18T08:56:59.715Z,8.30
2018-12-18T08:59:40.537Z,8.53
2018-12-18T09:02:16.066Z,7.67
2018-12-18T09:04:56.663Z,7.80
2018-12-18T09:07:31.082Z,8.10
2018-12-18T09:10:08.019Z,9.40
2018-12-18T09:12:44.111Z,8.60
2018-12-18T09:15:29.985Z,8.30
2018-12-18T09:18:08.771Z,8.03
2018-12-18T09:20:46.359Z,7.47
2018-12-18T09:23:22.339Z,6.60
2018-12-18T09:25:58.301Z,6.50
2018-12-18T09:28:36.990Z,6.70
2018-12-18T09:31:19.419Z,6.20
2018-12-18T09:33:55.846Z,6.30
2018-12-18T09:36:34.434Z,6.70
2018-12-18T09:39:15.122Z,6.40
2018-12-18T09:41:57.458Z,6.10
2018-12-18T09:44:39.866Z,6.60
2018-12-18T09:47:15.760Z,6.70
2018-12-18T09:49:56.679Z,8.93
2018-12-18T09:52:37.593Z,6.60
2018-12-18T09:55:16.026Z,7.03
2018-12-18T09:57:58.297Z,6.57
2018-12-18T10:00:36.609Z,6.87
2018-12-18T10:03:16.823Z,6.43
2018-12-18T10:05:56.486Z,6.00
2018-12-18T10:08:33.783Z,6.00
2018-12-18T10:11:12.460Z,6.00
2018-12-18T10:13:49.039Z,6.17
2018-12-18T10:16:31.752Z,6.80
2018-12-18T10:19:11.749Z,6.80
2018-12-18T10:21:50.437Z,7.80
2018-12-18T10:24:26.257Z,7.13
2018-12-18T10:27:07.040Z,6.90
2018-12-18T10:29:41.945Z,6.87
2018-12-18T10:32:22.438Z,7.13
2018-12-18T10:35:04.527Z,7.23
2018-12-18T10:37:42.835Z,7.17
2018-12-18T10:40:21.524Z,7.20
2018-12-18T10:43:02.442Z,7.30
2018-12-18T10:45:38.527Z,7.33
2018-12-18T10:48:15.075Z,7.80
2018-12-18T10:50:54.358Z,7.90
2018-12-18T10:53:30.010Z,7.93
2018-12-18T10:56:09.119Z,7.37
2018-12-18T10:58:49.452Z,8.20
2018-12-18T11:01:36.286Z,7.80
2018-12-18T11:04:12.106Z,8.10
2018-12-18T11:06:47.374Z,8.17
2018-12-18T11:09:29.411Z,8.40
2018-12-18T11:12:05.650Z,9.13
2018-12-18T11:14:51.715Z,8.90
2018-12-18T11:17:32.712Z,8.80
2018-12-18T11:20:09.332Z,9.23
2018-12-18T11:22:50.620Z,8.63
2018-12-18T11:25:29.122Z,8.90
2018-12-18T11:28:11.793Z,9.13
2018-12-18T11:30:56.769Z,9.57
2018-12-18T11:33:38.363Z,9.37
2018-12-18T11:36:17.571Z,9.70
2018-12-18T11:38:58.495Z,9.10
2018-12-18T11:41:37.902Z,9.80
2018-12-18T11:44:14.582Z,10.53
2018-12-18T11:46:56.025Z,10.23
2018-12-18T11:49:39.971Z,10.37
2018-12-18T11:52:15.057Z,9.10
2018-12-18T11:54:52.553Z,9.50
2018-12-18T11:57:29.649Z,9.90
2018-12-18T12:00:08.740Z,11.13
2018-12-18T12:02:50.016Z,11.30
2018-12-18T12:05:25.638Z,10.57
2018-12-18T12:08:06.630Z,10.90
2018-12-18T12:10:53.504Z,11.20
2018-12-18T12:16:30.822Z,11.10
2018-12-18T12:19:12.684Z,10.90
2018-12-18T12:21:50.842Z,10.93
2018-12-18T12:24:31.941Z,10.60
2018-12-18T12:27:17.544Z,10.73
2018-12-18T12:29:55.996Z,11.07
2018-12-18T12:32:30.767Z,10.70
2018-12-18T12:35:06.282Z,10.60
2018-12-18T12:37:40.695Z,10.83
2018-12-18T12:40:15.319Z,10.93
2018-12-18T12:42:49.973Z,10.27
2018-12-18T12:45:24.826Z,9.43
2018-12-18T12:48:00.418Z,10.20
2018-12-18T12:50:35.735Z,10.33
2018-12-18T12:53:10.783Z,10.53
2018-12-18T12:55:45.602Z,9.67
2018-12-18T12:58:42.766Z,9.50
2018-12-18T13:01:33.895Z,8.70
2018-12-18T13:04:09.015Z,9.00
2018-12-18T13:06:43.779Z,8.43
2018-12-18T13:09:18.583Z,8.83
2018-12-18T13:11:53.635Z,8.70
2018-12-18T13:14:32.195Z,8.97
2018-12-18T13:17:07.702Z,9.03
2018-12-18T13:19:42.194Z,8.57
2018-12-18T13:22:16.830Z,9.80
2018-12-18T13:24:51.783Z,9.70
2018-12-18T13:27:26.616Z,9.57
2018-12-18T13:30:02.254Z,8.70
2018-12-18T13:32:36.971Z,8.23
2018-12-18T13:35:11.826Z,8.57
2018-12-18T13:37:46.211Z,8.63
2018-12-18T13:40:21.107Z,8.47
2018-12-18T13:42:55.787Z,8.83
2018-12-18T13:45:30.263Z,9.50
2018-12-18T13:48:05.704Z,8.97
2018-12-18T13:50:40.200Z,9.30
2018-12-18T13:53:15.486Z,8.40
2018-12-18T13:55:49.847Z,8.97
2018-12-18T13:58:25.036Z,8.90
2018-12-18T14:01:00.206Z,9.20
2018-12-18T14:03:35.018Z,8.70
2018-12-18T14:06:09.919Z,8.90
2018-12-18T14:08:44.395Z,9.10
2018-12-18T14:11:18.685Z,10.00
2018-12-18T14:13:53.314Z,9.17
2018-12-18T14:16:27.934Z,9.70
2018-12-18T14:19:02.261Z,10.10
2018-12-18T14:21:37.079Z,10.07
2018-12-18T14:24:11.345Z,9.63
2018-12-18T14:26:45.962Z,9.73
2018-12-18T14:29:20.698Z,9.97
2018-12-18T14:31:55.817Z,10.13
2018-12-18T14:34:30.646Z,9.97
2018-12-18T14:37:05.654Z,11.10
2018-12-18T14:39:40.294Z,10.47
2018-12-18T14:42:14.786Z,10.63
2018-12-18T14:44:49.187Z,11.07
2018-12-18T14:47:23.590Z,11.07
2018-12-18T14:49:58.317Z,10.87
2018-12-18T14:52:33.284Z,10.50
2018-12-18T14:55:08.527Z,10.47
2018-12-18T14:57:43.663Z,10.60
2018-12-18T15:00:18.568Z,10.93
2018-12-18T15:02:53.545Z,11.00
2018-12-18T15:05:28.008Z,11.20
2018-12-18T15:08:02.635Z,11.50
2018-12-18T15:10:37.777Z,11.20
2018-12-18T15:13:12.478Z,11.93
2018-12-18T15:15:47.307Z,11.30
2018-12-18T15:18:23.263Z,11.70
2018-12-18T15:20:58.667Z,11.90
2018-12-18T15:23:33.255Z,11.80
2018-12-18T15:26:07.845Z,12.00
2018-12-18T15:28:42.688Z,12.53
2018-12-18T15:31:17.612Z,12.33
2018-12-18T15:33:52.690Z,12.10
2018-12-18T15:36:29.199Z,13.10
2018-12-18T15:39:06.727Z,13.40
2018-12-18T15:41:41.420Z,13.10
2018-12-18T15:44:16.118Z,12.27
2018-12-18T15:47:00.270Z,11.87
2018-12-18T15:49:34.718Z,12.30
2018-12-18T15:52:09.113Z,11.60
2018-12-18T15:54:43.462Z,12.50
2018-12-18T15:57:19.473Z,11.80
2018-12-18T15:59:54.442Z,11.40
2018-12-18T16:02:29.151Z,11.47
2018-12-18T16:05:04.750Z,10.80
2018-12-18T16:07:39.294Z,11.97
2018-12-18T16:10:14.206Z,11.30
2018-12-18T16:12:48.690Z,10.97
2018-12-18T16:15:24.007Z,10.63
2018-12-18T16:17:58.427Z,10.87
2018-12-18T16:20:33.041Z,11.17
2018-12-18T16:23:07.897Z,11.20
2018-12-18T16:25:42.776Z,11.20
2018-12-18T16:28:17.113Z,11.90
2018-12-18T16:30:51.846Z,11.67
2018-12-18T16:33:26.204Z,12.10
2018-12-18T16:36:00.918Z,11.97
2018-12-18T16:38:35.641Z,11.33
2018-12-18T16:41:15.933Z,12.60
2018-12-18T16:44:13.223Z,11.70
2018-12-18T16:49:48.034Z,11.97
2018-12-18T16:52:35.520Z,12.73
2018-12-18T16:55:13.303Z,11.90
2018-12-18T17:00:50.190Z,13.50
2018-12-18T17:03:46.825Z,15.20
2018-12-18T17:06:21.540Z,17.27
2018-12-18T17:12:02.684Z,23.80
2018-12-18T17:20:32.807Z,28.53
2018-12-18T17:23:13.282Z,34.77
2018-12-18T17:25:54.161Z,32.57
2018-12-18T17:28:40.979Z,33.53
2018-12-18T17:31:21.163Z,33.03
2018-12-18T17:34:17.426Z,36.27
2018-12-18T17:36:55.699Z,36.80
2018-12-18T17:39:38.368Z,45.97
2018-12-18T17:45:09.955Z,38.87
2018-12-18T17:47:47.618Z,40.83
2018-12-18T17:50:22.586Z,43.23
2018-12-18T17:52:57.610Z,42.20
2018-12-18T17:55:31.903Z,42.60
2018-12-18T17:58:06.898Z,41.43
2018-12-18T18:00:44.683Z,42.87
2018-12-18T18:03:19.237Z,42.83
2018-12-18T18:05:53.868Z,42.20
2018-12-18T18:08:34.228Z,38.07
2018-12-18T18:11:10.426Z,40.40
2018-12-18T18:14:00.702Z,37.83
2018-12-18T18:16:35.833Z,37.97
2018-12-18T18:22:24.439Z,38.80
2018-12-18T18:24:59.066Z,36.97
2018-12-18T18:27:33.610Z,34.30
2018-12-18T18:30:09.075Z,35.53
2018-12-18T18:32:43.740Z,32.83
2018-12-18T18:35:18.986Z,34.97
2018-12-18T18:37:53.321Z,31.90
2018-12-18T18:40:28.066Z,30.87
2018-12-18T18:43:02.935Z,30.30
2018-12-18T18:45:37.853Z,32.53
2018-12-18T18:48:12.509Z,30.93
2018-12-18T18:50:46.871Z,30.17
2018-12-18T18:53:21.151Z,30.77
2018-12-18T18:55:55.782Z,29.43
2018-12-18T18:58:30.472Z,31.93
2018-12-18T19:01:05.396Z,32.63
2018-12-18T19:03:41.174Z,31.43
2018-12-18T19:06:15.854Z,30.30
2018-12-18T19:08:50.311Z,30.07
2018-12-18T19:11:25.061Z,32.80
2018-12-18T19:13:59.477Z,29.60
2018-12-18T19:16:33.762Z,30.50
2018-12-18T19:19:08.175Z,30.70
2018-12-18T19:21:42.624Z,31.50
2018-12-18T19:24:17.154Z,28.87
2018-12-18T19:26:52.377Z,29.10
2018-12-18T19:29:27.102Z,28.20
2018-12-18T19:32:02.098Z,28.97
2018-12-18T19:34:36.576Z,32.23
2018-12-18T19:37:10.932Z,30.03
2018-12-18T19:39:46.048Z,29.33
2018-12-18T19:42:20.740Z,32.10
2018-12-18T19:44:55.795Z,29.90
2018-12-18T19:47:30.171Z,28.77
2018-12-18T19:50:05.834Z,28.87
2018-12-18T19:52:40.159Z,27.43
2018-12-18T19:55:15.559Z,28.17
2018-12-18T19:57:50.048Z,26.93
2018-12-18T20:00:24.455Z,29.23
2018-12-18T20:02:59.170Z,28.67
2018-12-18T20:05:33.899Z,28.00
2018-12-18T20:08:10.199Z,27.87
2018-12-18T20:10:45.063Z,29.37
2018-12-18T20:13:19.392Z,28.33
2018-12-18T20:15:53.848Z,29.60
2018-12-18T20:18:30.450Z,30.27
2018-12-18T20:24:06.971Z,27.97
2018-12-18T20:26:42.524Z,28.87
2018-12-18T20:29:17.214Z,30.67
2018-12-18T20:31:51.714Z,29.50
2018-12-18T20:34:44.760Z,30.33
2018-12-18T20:37:19.962Z,30.73
2018-12-18T20:40:01.508Z,29.50
2018-12-18T20:42:37.179Z,32.13
2018-12-18T20:45:11.991Z,29.53
2018-12-18T20:48:03.767Z,31.00
2018-12-18T20:50:39.047Z,31.53
2018-12-18T20:55:43.394Z,30.10
2018-12-18T20:58:18.158Z,30.73
2018-12-18T21:00:54.319Z,28.60
2018-12-18T21:03:28.746Z,30.03
2018-12-18T21:06:25.315Z,29.17
2018-12-18T21:11:57.336Z,29.07
2018-12-18T21:17:28.148Z,29.13
2018-12-18T21:20:02.703Z,30.77
2018-12-18T21:22:37.606Z,31.80
2018-12-18T21:25:11.925Z,29.47
2018-12-18T21:27:46.878Z,31.07
2018-12-18T21:30:21.174Z,29.97
2018-12-18T21:32:55.535Z,33.10
2018-12-18T21:35:30.660Z,31.83
2018-12-18T21:41:02.989Z,31.80
2018-12-18T21:43:37.663Z,31.20
2018-12-18T21:46:12.637Z,29.27
2018-12-18T21:48:47.271Z,29.70
2018-12-18T21:51:23.031Z,33.77
2018-12-18T21:54:04.272Z,32.37
2018-12-18T21:56:39.013Z,31.80
2018-12-18T21:59:13.697Z,33.07
2018-12-18T22:01:48.018Z,35.90
2018-12-18T22:04:23.014Z,35.20
2018-12-18T22:07:03.190Z,35.47
2018-12-18T22:09:56.571Z,34.53
2018-12-18T22:12:34.203Z,36.17
2018-12-18T22:15:24.971Z,35.83
2018-12-18T22:18:05.525Z,35.57
2018-12-18T22:20:48.397Z,35.13
2018-12-18T22:29:15.547Z,36.67
2018-12-18T22:31:50.733Z,38.93
2018-12-18T22:34:26.303Z,37.70
2018-12-18T22:40:01.898Z,38.17
2018-12-18T22:45:40.583Z,41.90
2018-12-18T22:48:15.356Z,37.63
2018-12-18T22:50:49.982Z,40.37
2018-12-18T22:53:24.923Z,45.90
2018-12-18T22:55:59.487Z,41.90
2018-12-18T22:58:34.391Z,42.67
2018-12-18T23:01:18.091Z,43.67
2018-12-18T23:03:52.821Z,43.97
2018-12-18T23:06:27.472Z,43.53
2018-12-18T23:09:04.107Z,44.33
2018-12-18T23:11:38.514Z,49.63
2018-12-18T23:14:13.169Z,52.63
2018-12-18T23:16:48.261Z,49.20
2018-12-18T23:19:24.004Z,44.70
2018-12-18T23:21:59.145Z,44.80
2018-12-18T23:24:33.491Z,42.43
2018-12-18T23:27:07.818Z,43.10
2018-12-18T23:29:42.191Z,40.43
2018-12-18T23:32:16.749Z,44.97
2018-12-18T23:34:51.379Z,47.10
2018-12-18T23:37:26.143Z,45.27
2018-12-18T23:40:01.198Z,39.07
2018-12-18T23:42:36.035Z,39.37
2018-12-18T23:45:11.722Z,43.10
2018-12-18T23:47:46.800Z,39.67
2018-12-18T23:50:21.629Z,38.90
2018-12-18T23:52:55.954Z,38.93
2018-12-18T23:55:30.498Z,41.83
2018-12-18T23:58:05.302Z,37.63
